createdAt,value
2017-11-06T00:02:15.252Z,98846.03
2017-11-06T00:04:49.708Z,98846.27
2017-11-06T00:07:24.128Z,98847.91
2017-11-06T00:09:58.738Z,98847.44
2017-11-06T00:12:33.155Z,98837.70
2017-11-06T00:15:12.086Z,98846.36
2017-11-06T00:17:46.595Z,98845.86
2017-11-06T00:20:21.106Z,98839.18
2017-11-06T00:22:55.764Z,98840.30
2017-11-06T00:25:30.160Z,98843.23
2017-11-06T00:28:04.542Z,98844.78
2017-11-06T00:30:38.992Z,98835.42
2017-11-06T00:33:13.487Z,98831.76
2017-11-06T00:35:47.909Z,98785.74
2017-11-06T00:38:22.440Z,98830.78
2017-11-06T00:40:56.931Z,98835.23
2017-11-06T00:43:31.382Z,98846.11
2017-11-06T00:46:05.806Z,98848.63
2017-11-06T00:48:40.261Z,98844.61
2017-11-06T00:51:14.711Z,98840.90
2017-11-06T00:53:49.442Z,98850.64
2017-11-06T00:56:23.892Z,98847.84
2017-11-06T00:58:58.439Z,98849.30
2017-11-06T01:01:32.854Z,98857.75
2017-11-06T01:04:07.371Z,98846.31
2017-11-06T01:06:41.847Z,98856.34
2017-11-06T01:09:16.230Z,98853.89
2017-11-06T01:11:50.644Z,98852.22
2017-11-06T01:14:25.313Z,98866.39
2017-11-06T01:17:00.618Z,98871.00
2017-11-06T01:19:35.123Z,98868.50
2017-11-06T01:22:09.660Z,98874.44
2017-11-06T01:24:44.185Z,98875.97
2017-11-06T01:27:18.613Z,98871.03
2017-11-06T01:29:53.123Z,98874.31
2017-11-06T01:32:27.610Z,98871.25
2017-11-06T01:35:02.139Z,98871.94
2017-11-06T01:37:36.592Z,98872.23
2017-11-06T01:40:11.071Z,98884.13
2017-11-06T01:42:45.634Z,98887.22
2017-11-06T01:45:20.134Z,98878.88
2017-11-06T01:47:54.758Z,98881.00
2017-11-06T01:50:28.970Z,98880.99
2017-11-06T01:53:03.351Z,98869.05
2017-11-06T01:55:37.568Z,98873.48
2017-11-06T01:58:12.242Z,98877.55
2017-11-06T02:00:46.295Z,98881.44
2017-11-06T02:03:20.539Z,98885.94
2017-11-06T02:05:55.364Z,98884.86
2017-11-06T02:08:30.010Z,98889.88
2017-11-06T02:11:04.386Z,98894.25
2017-11-06T02:13:39.080Z,98890.02
2017-11-06T02:16:13.484Z,98894.38
2017-11-06T02:18:48.058Z,98887.06
2017-11-06T02:21:22.446Z,98888.42
2017-11-06T02:23:56.631Z,98881.69
2017-11-06T02:26:31.102Z,98881.37
2017-11-06T02:29:05.174Z,98881.06
2017-11-06T02:31:39.627Z,98884.73
2017-11-06T02:34:13.722Z,98879.16
2017-11-06T02:36:48.154Z,98882.77
2017-11-06T02:39:22.734Z,98883.75
2017-11-06T02:41:58.515Z,98881.30
2017-11-06T02:44:33.284Z,98871.81
2017-11-06T02:47:08.092Z,98870.06
2017-11-06T02:49:42.678Z,98870.94
2017-11-06T02:52:17.134Z,98869.62
2017-11-06T02:54:51.652Z,98878.55
2017-11-06T02:57:26.037Z,98879.17
2017-11-06T03:00:00.615Z,98882.81
2017-11-06T03:02:35.126Z,98866.02
2017-11-06T03:05:12.002Z,98742.20
2017-11-06T03:07:46.492Z,98867.74
2017-11-06T03:10:20.882Z,98864.66
2017-11-06T03:12:55.414Z,98868.27
2017-11-06T03:15:29.810Z,98871.03
2017-11-06T03:18:04.484Z,98888.52
2017-11-06T03:20:38.685Z,98888.83
2017-11-06T03:23:13.331Z,98876.14
2017-11-06T03:25:47.807Z,98893.02
2017-11-06T03:28:22.338Z,98879.65
2017-11-06T03:30:56.831Z,98887.70
2017-11-06T03:33:31.268Z,98891.75
2017-11-06T03:36:05.746Z,98885.05
2017-11-06T03:38:40.158Z,98891.49
2017-11-06T03:41:14.624Z,98886.11
2017-11-06T03:43:49.248Z,98890.04
2017-11-06T03:46:23.717Z,98891.36
2017-11-06T03:48:58.917Z,98883.48
2017-11-06T03:51:33.467Z,98904.74
2017-11-06T03:54:08.070Z,98905.53
2017-11-06T03:56:42.487Z,98907.15
2017-11-06T03:59:16.954Z,98904.37
2017-11-06T04:01:51.430Z,98913.19
2017-11-06T04:04:26.017Z,98907.92
2017-11-06T04:07:01.733Z,98915.02
2017-11-06T04:09:36.136Z,98917.59
2017-11-06T04:12:10.719Z,98910.80
2017-11-06T04:14:45.133Z,98910.48
2017-11-06T04:17:19.618Z,98918.76
2017-11-06T04:19:54.057Z,98931.75
2017-11-06T04:22:28.536Z,98934.41
2017-11-06T04:25:03.178Z,98927.00
2017-11-06T04:27:38.378Z,98937.06
2017-11-06T04:30:12.841Z,98934.89
2017-11-06T04:32:47.975Z,98936.37
2017-11-06T04:35:22.135Z,98937.73
2017-11-06T04:37:56.281Z,98937.62
2017-11-06T04:40:30.703Z,98939.64
2017-11-06T04:43:05.142Z,98943.39
2017-11-06T04:45:39.515Z,98948.98
2017-11-06T04:48:13.971Z,98950.06
2017-11-06T04:50:48.402Z,98963.89
2017-11-06T04:53:23.023Z,98968.03
2017-11-06T04:55:57.551Z,98978.23
2017-11-06T04:58:32.087Z,98981.14
2017-11-06T05:01:06.553Z,98975.28
2017-11-06T05:03:41.150Z,98981.71
2017-11-06T05:06:15.583Z,98979.00
2017-11-06T05:08:50.123Z,98985.83
2017-11-06T05:11:24.494Z,98987.83
2017-11-06T05:13:58.998Z,98992.23
2017-11-06T05:16:33.458Z,98996.28
2017-11-06T05:19:08.031Z,99002.58
2017-11-06T05:21:42.502Z,99003.00
2017-11-06T05:24:16.939Z,99009.41
2017-11-06T05:26:51.333Z,99005.13
2017-11-06T05:29:25.795Z,99021.89
2017-11-06T05:32:00.173Z,99017.45
2017-11-06T05:34:34.675Z,99026.58
2017-11-06T05:37:09.199Z,99029.27
2017-11-06T05:39:43.685Z,99026.99
2017-11-06T05:42:17.918Z,99033.42
2017-11-06T05:44:52.096Z,99033.95
2017-11-06T05:47:26.510Z,99044.14
2017-11-06T05:50:00.924Z,99034.36
2017-11-06T05:52:35.391Z,99042.66
2017-11-06T05:55:09.988Z,99044.52
2017-11-06T05:57:44.391Z,99043.86
2017-11-06T06:00:18.855Z,99059.52
2017-11-06T06:02:53.443Z,99054.05
2017-11-06T06:05:27.934Z,99055.23
2017-11-06T06:08:02.498Z,99049.35
2017-11-06T06:10:36.994Z,99057.91
2017-11-06T06:13:11.386Z,99074.75
2017-11-06T06:15:45.800Z,99067.96
2017-11-06T06:18:20.198Z,99064.73
2017-11-06T06:20:54.634Z,99073.83
2017-11-06T06:23:29.226Z,99069.28
2017-11-06T06:26:03.695Z,99076.25
2017-11-06T06:28:38.276Z,99087.35
2017-11-06T06:31:13.486Z,99088.30
2017-11-06T06:33:47.934Z,99086.16
2017-11-06T06:36:22.174Z,99090.56
2017-11-06T06:38:56.941Z,99102.61
2017-11-06T06:41:31.339Z,99101.52
2017-11-06T06:44:06.192Z,99100.99
2017-11-06T06:46:40.799Z,99101.52
2017-11-06T06:49:15.208Z,99102.34
2017-11-06T06:51:49.603Z,99110.48
2017-11-06T06:54:24.127Z,99106.09
2017-11-06T06:56:58.517Z,99115.34
2017-11-06T06:59:33.108Z,99123.75
2017-11-06T07:02:07.613Z,99125.89
2017-11-06T07:04:42.305Z,99125.37
2017-11-06T07:07:16.344Z,99130.06
2017-11-06T07:09:50.566Z,99141.05
2017-11-06T07:12:24.600Z,99141.02
2017-11-06T07:14:59.083Z,99144.51
2017-11-06T07:17:33.549Z,99147.43
2017-11-06T07:20:08.076Z,99152.50
2017-11-06T07:22:42.691Z,99156.39
2017-11-06T07:25:17.103Z,99150.35
2017-11-06T07:27:51.622Z,99166.81
2017-11-06T07:30:26.111Z,99166.30
2017-11-06T07:33:00.641Z,99166.91
2017-11-06T07:35:34.554Z,99174.20
2017-11-06T07:38:08.986Z,99170.75
2017-11-06T07:40:43.299Z,99168.77
2017-11-06T07:43:17.806Z,99177.97
2017-11-06T07:45:52.342Z,99164.95
2017-11-06T07:48:26.935Z,99170.30
2017-11-06T07:51:01.359Z,99185.30
2017-11-06T07:53:35.962Z,99190.75
2017-11-06T07:56:10.363Z,99151.45
2017-11-06T07:58:44.914Z,99181.83
2017-11-06T08:01:19.456Z,99193.73
2017-11-06T08:03:53.968Z,99197.06
2017-11-06T08:06:28.338Z,99193.05
2017-11-06T08:09:02.730Z,99184.05
2017-11-06T08:11:37.133Z,99198.78
2017-11-06T08:14:11.742Z,99195.73
2017-11-06T08:16:46.175Z,99198.28
2017-11-06T08:19:20.735Z,99197.20
2017-11-06T08:21:55.163Z,99205.80
2017-11-06T08:24:29.595Z,99204.98
2017-11-06T08:27:03.868Z,99200.67
2017-11-06T08:29:38.312Z,99175.30
2017-11-06T08:32:12.740Z,99211.84
2017-11-06T08:34:47.404Z,99217.27
2017-11-06T08:37:21.862Z,99224.13
2017-11-06T08:39:56.550Z,99222.09
2017-11-06T08:42:31.191Z,99221.81
2017-11-06T08:45:11.592Z,99230.98
2017-11-06T08:47:46.319Z,99227.62
2017-11-06T08:50:20.730Z,99236.75
2017-11-06T08:52:55.346Z,99238.44
2017-11-06T08:55:30.071Z,99239.66
2017-11-06T08:58:04.565Z,99254.56
2017-11-06T09:00:38.994Z,99260.25
2017-11-06T09:03:13.507Z,99260.23
2017-11-06T09:05:48.136Z,99225.17
2017-11-06T09:08:22.730Z,99267.29
2017-11-06T09:10:57.151Z,99265.14
2017-11-06T09:13:31.570Z,99272.14
2017-11-06T09:16:06.041Z,99280.56
2017-11-06T09:18:40.590Z,99266.77
2017-11-06T09:21:15.016Z,99267.48
2017-11-06T09:23:49.838Z,99268.59
2017-11-06T09:26:24.323Z,99275.73
2017-11-06T09:28:58.892Z,99270.09
2017-11-06T09:31:33.387Z,99268.06
2017-11-06T09:34:07.935Z,99256.02
2017-11-06T09:36:42.462Z,99261.66
2017-11-06T09:39:17.001Z,99260.32
2017-11-06T09:41:51.446Z,99266.07
2017-11-06T09:44:26.051Z,99257.07
2017-11-06T09:47:00.518Z,99266.33
2017-11-06T09:49:35.114Z,99267.95
2017-11-06T09:52:09.598Z,99270.91
2017-11-06T09:54:44.138Z,99274.64
2017-11-06T09:57:18.982Z,99277.94
2017-11-06T09:59:53.618Z,99274.27
2017-11-06T10:02:28.082Z,99272.43
2017-11-06T10:05:02.730Z,99286.09
2017-11-06T10:07:37.242Z,99291.45
2017-11-06T10:10:11.877Z,99294.44
2017-11-06T10:12:46.254Z,99292.92
2017-11-06T10:15:20.647Z,99293.32
2017-11-06T10:17:54.874Z,99301.03
2017-11-06T10:20:29.262Z,99312.33
2017-11-06T10:23:03.906Z,99319.98
2017-11-06T10:25:38.449Z,99320.36
2017-11-06T10:28:13.038Z,99312.25
2017-11-06T10:30:47.491Z,99305.16
2017-11-06T10:33:21.469Z,99306.59
2017-11-06T10:35:55.867Z,99306.09
2017-11-06T10:38:30.314Z,99299.11
2017-11-06T10:41:04.826Z,99297.52
2017-11-06T10:43:39.395Z,99297.98
2017-11-06T10:46:14.086Z,99297.08
2017-11-06T10:48:48.713Z,99298.45
2017-11-06T10:51:22.842Z,99292.03
2017-11-06T10:53:57.228Z,99295.20
2017-11-06T10:56:31.450Z,99294.03
2017-11-06T10:59:06.066Z,99290.89
2017-11-06T11:01:40.507Z,99291.30
2017-11-06T11:04:15.013Z,99283.27
2017-11-06T11:06:49.554Z,99302.06
2017-11-06T11:09:24.458Z,99311.56
2017-11-06T11:11:59.127Z,99299.22
2017-11-06T11:14:33.731Z,99314.83
2017-11-06T11:17:08.171Z,99332.42
2017-11-06T11:19:42.750Z,99325.57
2017-11-06T11:22:17.219Z,99337.91
2017-11-06T11:24:51.757Z,99337.48
2017-11-06T11:27:26.252Z,99341.70
2017-11-06T11:30:00.943Z,99336.13
2017-11-06T11:32:35.068Z,99338.79
2017-11-06T11:35:09.663Z,99337.99
2017-11-06T11:37:44.122Z,99335.39
2017-11-06T11:40:18.191Z,99351.16
2017-11-06T11:42:52.647Z,99351.24
2017-11-06T11:45:27.305Z,99347.02
2017-11-06T11:48:01.746Z,99255.39
2017-11-06T11:50:36.211Z,99350.52
2017-11-06T11:53:10.715Z,99354.39
2017-11-06T11:55:45.194Z,99348.36
2017-11-06T11:58:19.803Z,99351.65
2017-11-06T12:00:54.102Z,99349.53
2017-11-06T12:03:29.201Z,99346.03
2017-11-06T12:06:03.254Z,99351.39
2017-11-06T12:08:37.882Z,99350.45
2017-11-06T12:11:12.328Z,99357.83
2017-11-06T12:13:46.956Z,99352.31
2017-11-06T12:16:21.379Z,99352.56
2017-11-06T12:18:55.810Z,99351.81
2017-11-06T12:21:30.249Z,99361.37
2017-11-06T12:24:04.818Z,99359.09
2017-11-06T12:26:39.320Z,99351.69
2017-11-06T12:29:14.419Z,99355.59
2017-11-06T12:31:48.873Z,99352.67
2017-11-06T12:34:30.073Z,99349.95
2017-11-06T12:37:05.344Z,99344.34
2017-11-06T12:39:39.913Z,99345.52
2017-11-06T12:42:14.297Z,99336.87
2017-11-06T12:44:49.515Z,99339.23
2017-11-06T12:47:23.955Z,99331.72
2017-11-06T12:49:58.603Z,99339.20
2017-11-06T12:52:33.004Z,99334.00
2017-11-06T12:55:07.914Z,99338.84
2017-11-06T12:57:42.479Z,99340.50
2017-11-06T13:00:16.888Z,99334.83
2017-11-06T13:02:51.490Z,99332.05
2017-11-06T13:05:25.880Z,99327.49
2017-11-06T13:08:00.401Z,99323.26
2017-11-06T13:10:34.899Z,99334.78
2017-11-06T13:13:09.407Z,99324.23
2017-11-06T13:15:43.906Z,99335.52
2017-11-06T13:18:18.454Z,99340.86
2017-11-06T13:20:52.920Z,99352.57
2017-11-06T13:23:27.586Z,99353.84
2017-11-06T13:26:02.458Z,99366.21
2017-11-06T13:28:37.192Z,99356.61
2017-11-06T13:31:11.855Z,99353.63
2017-11-06T13:33:46.456Z,99344.02
2017-11-06T13:36:20.844Z,99368.21
2017-11-06T13:38:55.438Z,99380.16
2017-11-06T13:41:29.943Z,99385.33
2017-11-06T13:44:04.342Z,99390.73
2017-11-06T13:46:38.799Z,99397.64
2017-11-06T13:49:13.370Z,99398.25
2017-11-06T13:51:47.810Z,99397.66
2017-11-06T13:54:22.369Z,99409.80
2017-11-06T13:56:57.055Z,99408.37
2017-11-06T13:59:31.558Z,99425.48
2017-11-06T14:02:05.976Z,99418.98
2017-11-06T14:04:40.456Z,99414.66
2017-11-06T14:07:14.887Z,99410.88
2017-11-06T14:09:49.487Z,99414.89
2017-11-06T14:12:23.962Z,99413.75
2017-11-06T14:14:58.518Z,99412.28
2017-11-06T14:17:32.906Z,99421.05
2017-11-06T14:20:07.416Z,99394.69
2017-11-06T14:22:41.958Z,99420.08
2017-11-06T14:25:16.752Z,99439.95
2017-11-06T14:27:51.323Z,99443.06
2017-11-06T14:30:25.773Z,99440.70
2017-11-06T14:33:00.265Z,99442.98
2017-11-06T14:35:34.657Z,99446.07
2017-11-06T14:38:09.266Z,99441.18
2017-11-06T14:40:43.684Z,99437.63
2017-11-06T14:43:18.155Z,99447.72
2017-11-06T14:45:52.748Z,99447.61
2017-11-06T14:48:27.401Z,99456.45
2017-11-06T14:51:01.896Z,99461.67
2017-11-06T14:53:36.431Z,99463.31
2017-11-06T14:56:10.932Z,99463.27
2017-11-06T14:58:45.450Z,99461.08
2017-11-06T15:01:19.835Z,99470.52
2017-11-06T15:03:54.382Z,99468.07
2017-11-06T15:06:28.847Z,99466.39
2017-11-06T15:09:03.135Z,99464.12
2017-11-06T15:11:37.512Z,99465.70
2017-11-06T15:14:11.692Z,99471.16
2017-11-06T15:16:45.790Z,99468.53
2017-11-06T15:19:19.841Z,99458.88
2017-11-06T15:21:54.247Z,99477.38
2017-11-06T15:24:28.474Z,99476.34
2017-11-06T15:27:02.884Z,99487.14
2017-11-06T15:29:37.567Z,99479.88
2017-11-06T15:32:11.975Z,99480.38
2017-11-06T15:34:46.971Z,99472.63
2017-11-06T15:37:21.458Z,99477.38
2017-11-06T15:39:55.950Z,99478.77
2017-11-06T15:42:30.447Z,99467.06
2017-11-06T15:45:04.591Z,99315.73
2017-11-06T15:47:39.111Z,99485.11
2017-11-06T15:50:14.449Z,99486.06
2017-11-06T15:52:49.057Z,99494.35
2017-11-06T15:55:23.496Z,99494.88
2017-11-06T15:57:58.190Z,99494.59
2017-11-06T16:00:32.606Z,99498.79
2017-11-06T16:03:07.163Z,99509.10
2017-11-06T16:05:41.647Z,99506.81
2017-11-06T16:08:16.208Z,99502.80
2017-11-06T16:10:50.613Z,99510.69
2017-11-06T16:13:25.158Z,99511.16
2017-11-06T16:15:59.703Z,99514.45
2017-11-06T16:18:34.291Z,99522.73
2017-11-06T16:21:09.551Z,99524.31
2017-11-06T16:23:43.909Z,99523.51
2017-11-06T16:26:18.398Z,99519.06
2017-11-06T16:28:52.912Z,99514.95
2017-11-06T16:31:27.394Z,99517.53
2017-11-06T16:34:02.030Z,99522.53
2017-11-06T16:36:36.435Z,99522.22
2017-11-06T16:39:11.091Z,99524.72
2017-11-06T16:41:45.516Z,99527.27
2017-11-06T16:44:19.927Z,99529.41
2017-11-06T16:46:54.370Z,99529.23
2017-11-06T16:49:28.960Z,99531.60
2017-11-06T16:52:03.381Z,99531.25
2017-11-06T16:54:37.961Z,99542.20
2017-11-06T16:57:12.354Z,99529.65
2017-11-06T16:59:46.798Z,99548.56
2017-11-06T17:02:21.277Z,99556.70
2017-11-06T17:04:55.799Z,99567.36
2017-11-06T17:07:30.363Z,99566.76
2017-11-06T17:10:04.919Z,99390.80
2017-11-06T17:12:39.476Z,99564.75
2017-11-06T17:15:13.689Z,99568.77
2017-11-06T17:17:48.474Z,99563.23
2017-11-06T17:20:23.062Z,99571.20
2017-11-06T17:22:57.472Z,99569.03
2017-11-06T17:25:31.887Z,99574.61
2017-11-06T17:28:06.287Z,99574.79
2017-11-06T17:30:40.923Z,99580.28
2017-11-06T17:33:16.165Z,99577.37
2017-11-06T17:35:50.925Z,99578.63
2017-11-06T17:38:25.447Z,99584.65
2017-11-06T17:40:59.868Z,99590.12
2017-11-06T17:43:34.406Z,99594.33
2017-11-06T17:46:08.964Z,99599.61
2017-11-06T17:48:43.515Z,99601.06
2017-11-06T17:51:18.009Z,99591.17
2017-11-06T17:53:52.571Z,99599.84
2017-11-06T17:56:26.995Z,99601.63
2017-11-06T17:59:01.522Z,99595.23
2017-11-06T18:01:35.938Z,99603.91
2017-11-06T18:04:10.739Z,99607.30
2017-11-06T18:06:45.274Z,99611.27
2017-11-06T18:09:19.806Z,99610.14
2017-11-06T18:11:54.359Z,99615.70
2017-11-06T18:14:28.778Z,99612.67
2017-11-06T18:17:03.198Z,99612.15
2017-11-06T18:19:37.729Z,99616.86
2017-11-06T18:22:12.029Z,99532.45
2017-11-06T18:24:46.613Z,99613.23
2017-11-06T18:27:21.166Z,99614.66
2017-11-06T18:29:55.671Z,99612.59
2017-11-06T18:32:30.342Z,99622.83
2017-11-06T18:35:04.788Z,99612.31
2017-11-06T18:37:39.422Z,99613.09
2017-11-06T18:40:14.098Z,99615.27
2017-11-06T18:42:48.618Z,99612.28
2017-11-06T18:45:23.119Z,99611.78
2017-11-06T18:47:57.739Z,99609.73
2017-11-06T18:50:32.201Z,99619.01
2017-11-06T18:53:06.738Z,99614.08
2017-11-06T18:55:41.247Z,99612.91
2017-11-06T18:58:15.819Z,99620.08
2017-11-06T19:00:50.330Z,99619.37
2017-11-06T19:03:24.882Z,99616.42
2017-11-06T19:05:59.367Z,99608.34
2017-11-06T19:08:33.867Z,99627.77
2017-11-06T19:11:08.284Z,99625.05
2017-11-06T19:13:43.328Z,99631.77
2017-11-06T19:16:17.987Z,99626.10
2017-11-06T19:18:52.530Z,99624.31
2017-11-06T19:21:26.950Z,99621.34
2017-11-06T19:24:01.364Z,99626.20
2017-11-06T19:26:36.129Z,99627.31
2017-11-06T19:29:10.739Z,99628.42
2017-11-06T19:31:45.235Z,99629.20
2017-11-06T19:34:19.814Z,99632.83
2017-11-06T19:36:54.293Z,99638.45
2017-11-06T19:39:28.910Z,99641.05
2017-11-06T19:42:03.527Z,99643.75
2017-11-06T19:44:38.795Z,99640.91
2017-11-06T19:47:13.270Z,99641.73
2017-11-06T19:49:47.938Z,99642.50
2017-11-06T19:52:22.330Z,99638.28
2017-11-06T19:54:56.761Z,99650.04
2017-11-06T19:57:31.183Z,99652.45
2017-11-06T20:00:05.631Z,99627.16
2017-11-06T20:02:40.151Z,99645.84
2017-11-06T20:05:14.541Z,99665.03
2017-11-06T20:07:49.138Z,99662.97
2017-11-06T20:10:23.575Z,99668.90
2017-11-06T20:12:58.138Z,99673.34
2017-11-06T20:15:32.622Z,99672.27
2017-11-06T20:18:07.106Z,99667.36
2017-11-06T20:20:41.614Z,99671.05
2017-11-06T20:23:16.258Z,99660.26
2017-11-06T20:25:50.710Z,99669.45
2017-11-06T20:28:25.170Z,99673.66
2017-11-06T20:30:59.650Z,99675.61
2017-11-06T20:33:34.030Z,99676.89
2017-11-06T20:36:08.567Z,99679.69
2017-11-06T20:38:43.094Z,99680.73
2017-11-06T20:41:17.611Z,99677.39
2017-11-06T20:43:51.898Z,99680.70
2017-11-06T20:46:25.963Z,99685.65
2017-11-06T20:49:00.031Z,99676.81
2017-11-06T20:51:34.070Z,99688.76
2017-11-06T20:54:08.252Z,99687.56
2017-11-06T20:56:42.681Z,99690.81
2017-11-06T20:59:17.190Z,99688.28
2017-11-06T21:01:51.779Z,99675.18
2017-11-06T21:04:26.309Z,99683.23
2017-11-06T21:07:00.719Z,99684.22
2017-11-06T21:09:35.338Z,99684.59
2017-11-06T21:12:10.211Z,99680.53
2017-11-06T21:14:44.764Z,99675.70
2017-11-06T21:17:19.210Z,99671.89
2017-11-06T21:19:53.714Z,99669.27
2017-11-06T21:22:30.028Z,99665.29
2017-11-06T21:25:07.238Z,99672.18
2017-11-06T21:27:41.764Z,99670.38
2017-11-06T21:30:21.953Z,99683.26
2017-11-06T21:32:56.466Z,99681.83
2017-11-06T21:35:30.895Z,99685.41
2017-11-06T21:38:05.335Z,99650.27
2017-11-06T21:40:39.762Z,99679.33
2017-11-06T21:43:14.351Z,99685.39
2017-11-06T21:45:48.402Z,99682.14
2017-11-06T21:48:22.942Z,99681.19
2017-11-06T21:50:57.339Z,99681.01
2017-11-06T21:53:31.714Z,99677.38
2017-11-06T21:56:06.335Z,99683.16
2017-11-06T21:58:40.807Z,99691.92
2017-11-06T22:01:15.233Z,99689.31
2017-11-06T22:03:49.610Z,99705.41
2017-11-06T22:06:24.079Z,99695.84
2017-11-06T22:08:58.704Z,99700.67
2017-11-06T22:11:33.631Z,99695.95
2017-11-06T22:14:08.187Z,99702.01
2017-11-06T22:16:42.702Z,99702.55
2017-11-06T22:19:17.190Z,99721.49
2017-11-06T22:21:51.825Z,99701.33
2017-11-06T22:24:26.367Z,99714.02
2017-11-06T22:27:00.775Z,99721.59
2017-11-06T22:29:35.330Z,99717.54
2017-11-06T22:32:09.753Z,99722.62
2017-11-06T22:34:44.782Z,99716.70
2017-11-06T22:37:19.007Z,99723.31
2017-11-06T22:39:53.494Z,99725.83
2017-11-06T22:42:27.920Z,99718.22
2017-11-06T22:45:02.549Z,99718.39
2017-11-06T22:47:37.172Z,99719.73
2017-11-06T22:50:11.618Z,99716.19
2017-11-06T22:52:46.132Z,99685.27
2017-11-06T22:55:20.566Z,99715.07
2017-11-06T22:57:55.042Z,99715.30
2017-11-06T23:00:29.583Z,99713.78
2017-11-06T23:03:03.791Z,99708.29
2017-11-06T23:05:38.447Z,99711.58
2017-11-06T23:08:12.839Z,99707.83
2017-11-06T23:10:47.306Z,99710.89
2017-11-06T23:13:21.750Z,99709.12
2017-11-06T23:15:56.226Z,99709.44
2017-11-06T23:18:30.770Z,99708.73
2017-11-06T23:21:05.286Z,99704.00
2017-11-06T23:23:39.803Z,99710.71
2017-11-06T23:26:14.409Z,99712.43
2017-11-06T23:28:49.046Z,99711.87
2017-11-06T23:31:23.467Z,99715.86
2017-11-06T23:33:58.674Z,99717.58
2017-11-06T23:36:33.051Z,99717.66
2017-11-06T23:39:07.489Z,99714.52
2017-11-06T23:41:41.706Z,99713.80
2017-11-06T23:44:16.163Z,99714.23
2017-11-06T23:46:50.665Z,99703.38
2017-11-06T23:49:25.097Z,99712.57
2017-11-06T23:51:59.365Z,99720.89
2017-11-06T23:54:34.391Z,99718.94
2017-11-06T23:57:08.790Z,99733.08
2017-11-06T23:59:43.294Z,99721.42
